Portada
METAR-TAF:

METAR-TAF

Aeropuertos :

Aruba, Aruba

Aeropuerto Internacional Reina Beatrix

latitud: 12-30N, longitud: 070-01W, altitud: 18 m

Observación

El informe se hizo hace 1 hora y 18 minutos, a las 05:00 UTC
Viento 20 kt del este
Temperatura 27°C
Humedad 84%
Presión 1011 hPa
Visibilidad 10 km o más
Escasas nubes a una altura de 1800 ft

METAR: TNCA 270500Z 09020KT 9999 FEW018 27/24 Q1011 NOSIG

Hora: 02:18 (06:18 UTC)

Pronóstico

El informe se hizo hace 2 horas y 18 minutos, a las 04:00 UTC
Pronóstico válido del 27 a las 06 UTC al 28 a las 06 UTC
Viento 17 kt del este
Visibilidad 10 km o más
Nubes dispersas a una altura de 2000 ft

TAF: TNCA 270400Z 2706/2806 09017KT 9999 SCT020

Observaciones y pronósticos meteorológicos de más de 4000 aeropuertos (mensajes METAR y TAF).

Los puntos amarillos y rojos representan las estaciones disponibles.

Ponga el ratón en el punto deseado para ver el nombre de la estación.

Haga clic para ver las observaciones y los pronósticos meteorológicos.

Para cambiar el mapa : haga clic en los botones verdes con una cruz de color negro para hacer un zoom, en el botón verde con un guión para alejar o en las flechas verdes para mapas adyacentes.


METAR-TAF: